sensor_id;sensor_type;location;lat;lon;timestamp;pressure;altitude;pressure_sealevel;temperature;humidity
21109;BME280;10712;52.944;9.098;2023-09-12T00:02:24;101179.91;;;28.81;76.71
21109;BME280;10712;52.944;9.098;2023-09-12T00:04:50;101173.31;;;28.75;76.85
21109;BME280;10712;52.944;9.098;2023-09-12T00:07:16;101164.41;;;28.73;76.93
21109;BME280;10712;52.944;9.098;2023-09-12T00:09:42;101156.19;;;28.73;77.02
21109;BME280;10712;52.944;9.098;2023-09-12T00:12:08;101135.28;;;28.72;76.79
21109;BME280;10712;52.944;9.098;2023-09-12T00:14:34;101122.91;;;28.76;77.08
21109;BME280;10712;52.944;9.098;2023-09-12T00:17:00;101112.31;;;28.73;77.30
21109;BME280;10712;52.944;9.098;2023-09-12T00:19:25;101101.59;;;28.78;76.91
21109;BME280;10712;52.944;9.098;2023-09-12T00:21:51;101099.91;;;28.77;77.08
21109;BME280;10712;52.944;9.098;2023-09-12T00:24:18;101087.63;;;28.73;76.86
21109;BME280;10712;52.944;9.098;2023-09-12T00:26:44;101068.13;;;28.62;76.85
21109;BME280;10712;52.944;9.098;2023-09-12T00:29:10;101055.00;;;28.57;77.48
21109;BME280;10712;52.944;9.098;2023-09-12T00:31:36;101027.09;;;28.47;78.19
21109;BME280;10712;52.944;9.098;2023-09-12T00:34:02;101011.19;;;28.36;78.77
21109;BME280;10712;52.944;9.098;2023-09-12T00:36:28;101013.94;;;28.36;78.91
21109;BME280;10712;52.944;9.098;2023-09-12T00:38:54;101021.97;;;28.37;78.96
21109;BME280;10712;52.944;9.098;2023-09-12T00:41:19;101030.00;;;28.39;79.29
21109;BME280;10712;52.944;9.098;2023-09-12T00:43:45;101015.63;;;28.37;79.74
21109;BME280;10712;52.944;9.098;2023-09-12T00:46:17;101000.50;;;28.41;79.71
21109;BME280;10712;52.944;9.098;2023-09-12T00:48:44;101004.03;;;28.35;79.94
21109;BME280;10712;52.944;9.098;2023-09-12T00:51:10;101019.81;;;28.33;79.91
21109;BME280;10712;52.944;9.098;2023-09-12T00:53:36;101033.78;;;28.38;80.24
21109;BME280;10712;52.944;9.098;2023-09-12T00:56:02;101052.34;;;28.42;80.16
21109;BME280;10712;52.944;9.098;2023-09-12T00:58:28;101054.53;;;28.47;79.94
21109;BME280;10712;52.944;9.098;2023-09-12T01:00:55;101063.00;;;28.52;79.89
21109;BME280;10712;52.944;9.098;2023-09-12T01:03:22;101074.63;;;28.54;80.44
21109;BME280;10712;52.944;9.098;2023-09-12T01:05:48;101092.47;;;28.50;80.47
21109;BME280;10712;52.944;9.098;2023-09-12T01:08:15;101106.41;;;28.48;80.24
21109;BME280;10712;52.944;9.098;2023-09-12T01:10:41;101133.22;;;28.53;80.51
21109;BME280;10712;52.944;9.098;2023-09-12T01:13:14;101164.66;;;28.57;80.50
21109;BME280;10712;52.944;9.098;2023-09-12T01:15:41;101166.78;;;28.55;80.42
21109;BME280;10712;52.944;9.098;2023-09-12T01:18:07;101144.19;;;28.53;80.22
21109;BME280;10712;52.944;9.098;2023-09-12T01:20:36;101148.16;;;28.50;80.65
21109;BME280;10712;52.944;9.098;2023-09-12T01:23:21;101143.41;;;28.59;80.37
21109;BME280;10712;52.944;9.098;2023-09-12T01:28:23;101138.16;;;28.64;80.11
21109;BME280;10712;52.944;9.098;2023-09-12T01:30:52;101138.16;;;28.64;80.30
21109;BME280;10712;52.944;9.098;2023-09-12T01:33:20;101141.56;;;28.66;80.52
21109;BME280;10712;52.944;9.098;2023-09-12T01:35:46;101153.56;;;28.65;80.49
21109;BME280;10712;52.944;9.098;2023-09-12T01:38:13;101163.88;;;28.63;80.16
21109;BME280;10712;52.944;9.098;2023-09-12T01:40:49;101160.44;;;28.54;80.57
21109;BME280;10712;52.944;9.098;2023-09-12T01:43:21;101176.03;;;28.54;80.32
21109;BME280;10712;52.944;9.098;2023-09-12T01:45:52;101161.31;;;28.55;80.21
21109;BME280;10712;52.944;9.098;2023-09-12T01:48:23;101169.38;;;28.63;80.42
21109;BME280;10712;52.944;9.098;2023-09-12T01:50:50;101163.50;;;28.66;80.37
21109;BME280;10712;52.944;9.098;2023-09-12T01:53:16;101158.16;;;28.58;80.29
21109;BME280;10712;52.944;9.098;2023-09-12T01:55:44;101156.84;;;28.54;80.64
21109;BME280;10712;52.944;9.098;2023-09-12T01:58:14;101162.47;;;28.46;80.90
21109;BME280;10712;52.944;9.098;2023-09-12T02:00:40;101157.34;;;28.43;80.65
21109;BME280;10712;52.944;9.098;2023-09-12T02:12:04;101135.31;;;28.30;80.97
21109;BME280;10712;52.944;9.098;2023-09-12T02:14:29;101111.31;;;28.32;81.08
21109;BME280;10712;52.944;9.098;2023-09-12T02:16:55;101103.28;;;28.30;80.81
21109;BME280;10712;52.944;9.098;2023-09-12T02:19:21;101112.59;;;28.36;80.72
21109;BME280;10712;52.944;9.098;2023-09-12T02:21:46;101130.75;;;28.37;81.04
21109;BME280;10712;52.944;9.098;2023-09-12T02:24:12;101132.25;;;28.39;81.09
21109;BME280;10712;52.944;9.098;2023-09-12T02:26:38;101146.81;;;28.40;81.02
21109;BME280;10712;52.944;9.098;2023-09-12T02:29:04;101135.44;;;28.43;80.91
21109;BME280;10712;52.944;9.098;2023-09-12T02:31:32;101122.84;;;28.48;81.09
21109;BME280;10712;52.944;9.098;2023-09-12T02:33:58;101128.66;;;28.39;81.10
21109;BME280;10712;52.944;9.098;2023-09-12T02:36:24;101136.22;;;28.37;80.92
21109;BME280;10712;52.944;9.098;2023-09-12T02:38:50;101123.56;;;28.36;81.29
21109;BME280;10712;52.944;9.098;2023-09-12T02:41:16;101113.66;;;28.35;81.02
21109;BME280;10712;52.944;9.098;2023-09-12T02:43:42;101107.53;;;28.33;81.45
21109;BME280;10712;52.944;9.098;2023-09-12T02:46:08;101111.69;;;28.29;81.32
21109;BME280;10712;52.944;9.098;2023-09-12T02:48:34;101135.06;;;28.25;81.39
21109;BME280;10712;52.944;9.098;2023-09-12T02:51:00;101154.59;;;28.21;81.44
21109;BME280;10712;52.944;9.098;2023-09-12T02:53:25;101162.63;;;28.23;81.32
21109;BME280;10712;52.944;9.098;2023-09-12T02:55:51;101215.81;;;28.29;81.32
21109;BME280;10712;52.944;9.098;2023-09-12T02:58:17;101202.13;;;28.29;81.31
21109;BME280;10712;52.944;9.098;2023-09-12T03:00:43;101165.19;;;28.25;81.56
21109;BME280;10712;52.944;9.098;2023-09-12T03:03:09;101163.91;;;28.20;81.42
21109;BME280;10712;52.944;9.098;2023-09-12T03:05:35;101174.06;;;28.27;81.38
21109;BME280;10712;52.944;9.098;2023-09-12T03:08:01;101172.38;;;28.26;81.90
21109;BME280;10712;52.944;9.098;2023-09-12T03:10:29;101196.00;;;28.27;81.72
21109;BME280;10712;52.944;9.098;2023-09-12T03:12:55;101203.19;;;28.28;81.55
21109;BME280;10712;52.944;9.098;2023-09-12T03:15:21;101202.41;;;28.34;81.51
21109;BME280;10712;52.944;9.098;2023-09-12T03:17:47;101187.78;;;28.27;81.78
21109;BME280;10712;52.944;9.098;2023-09-12T03:20:13;101179.16;;;28.30;81.46
21109;BME280;10712;52.944;9.098;2023-09-12T03:22:39;101177.06;;;28.32;81.66
21109;BME280;10712;52.944;9.098;2023-09-12T03:25:06;101159.34;;;28.28;81.88
21109;BME280;10712;52.944;9.098;2023-09-12T03:27:32;101156.59;;;28.28;81.67
21109;BME280;10712;52.944;9.098;2023-09-12T03:29:59;101173.22;;;28.26;81.77
21109;BME280;10712;52.944;9.098;2023-09-12T03:32:25;101177.44;;;28.29;81.60
21109;BME280;10712;52.944;9.098;2023-09-12T03:34:51;101169.91;;;28.31;81.47
21109;BME280;10712;52.944;9.098;2023-09-12T03:37:16;101151.13;;;28.28;81.92
21109;BME280;10712;52.944;9.098;2023-09-12T03:39:43;101146.69;;;28.27;81.37
21109;BME280;10712;52.944;9.098;2023-09-12T03:42:09;101135.72;;;28.27;81.75
21109;BME280;10712;52.944;9.098;2023-09-12T03:44:34;101139.09;;;28.29;81.55
21109;BME280;10712;52.944;9.098;2023-09-12T03:47:00;101139.09;;;28.29;81.25
21109;BME280;10712;52.944;9.098;2023-09-12T03:49:27;101136.56;;;28.27;81.25
21109;BME280;10712;52.944;9.098;2023-09-12T03:51:54;101131.66;;;28.23;81.26
21109;BME280;10712;52.944;9.098;2023-09-12T03:54:19;101107.41;;;28.19;81.57
21109;BME280;10712;52.944;9.098;2023-09-12T03:56:45;101069.41;;;28.16;81.43
21109;BME280;10712;52.944;9.098;2023-09-12T03:59:11;101050.44;;;28.15;81.18
21109;BME280;10712;52.944;9.098;2023-09-12T04:01:37;101044.75;;;28.16;81.41
21109;BME280;10712;52.944;9.098;2023-09-12T04:04:04;101043.72;;;28.17;81.26
21109;BME280;10712;52.944;9.098;2023-09-12T04:06:29;101033.13;;;28.14;81.08
21109;BME280;10712;52.944;9.098;2023-09-12T04:08:56;101018.78;;;28.12;81.44
21109;BME280;10712;52.944;9.098;2023-09-12T04:11:21;101015.38;;;28.10;81.26
21109;BME280;10712;52.944;9.098;2023-09-12T04:13:47;101016.69;;;28.14;81.53
21109;BME280;10712;52.944;9.098;2023-09-12T04:16:13;101008.28;;;28.16;81.33
21109;BME280;10712;52.944;9.098;2023-09-12T04:18:39;101001.56;;;28.18;81.46
21109;BME280;10712;52.944;9.098;2023-09-12T04:21:05;100991.00;;;28.15;81.27
21109;BME280;10712;52.944;9.098;2023-09-12T04:23:31;100981.47;;;28.11;81.59
21109;BME280;10712;52.944;9.098;2023-09-12T04:25:57;100992.22;;;28.13;81.24
21109;BME280;10712;52.944;9.098;2023-09-12T04:28:26;101013.69;;;28.09;81.47
21109;BME280;10712;52.944;9.098;2023-09-12T04:31:00;101041.47;;;28.06;81.26
21109;BME280;10712;52.944;9.098;2023-09-12T04:33:28;101057.91;;;28.06;81.71
21109;BME280;10712;52.944;9.098;2023-09-12T04:35:53;101055.75;;;28.02;81.60
21109;BME280;10712;52.944;9.098;2023-09-12T04:38:19;101049.41;;;28.01;81.82
21109;BME280;10712;52.944;9.098;2023-09-12T04:41:01;101052.75;;;27.97;81.96
21109;BME280;10712;52.944;9.098;2023-09-12T04:43:31;101054.25;;;27.99;81.79
21109;BME280;10712;52.944;9.098;2023-09-12T04:45:57;101049.34;;;27.95;81.79
21109;BME280;10712;52.944;9.098;2023-09-12T04:48:23;101056.09;;;27.92;81.60
21109;BME280;10712;52.944;9.098;2023-09-12T04:50:49;101064.31;;;27.92;81.76
21109;BME280;10712;52.944;9.098;2023-09-12T04:53:15;101062.59;;;27.91;81.89
21109;BME280;10712;52.944;9.098;2023-09-12T04:55:41;101060.13;;;27.96;81.50
21109;BME280;10712;52.944;9.098;2023-09-12T04:58:07;101075.25;;;27.92;81.81
21109;BME280;10712;52.944;9.098;2023-09-12T05:00:34;101087.25;;;27.91;81.80
21109;BME280;10712;52.944;9.098;2023-09-12T05:03:02;101093.94;;;27.89;82.05
21109;BME280;10712;52.944;9.098;2023-09-12T05:05:29;101104.72;;;27.90;81.97
21109;BME280;10712;52.944;9.098;2023-09-12T05:07:55;101122.19;;;27.89;81.85
21109;BME280;10712;52.944;9.098;2023-09-12T05:10:21;101140.22;;;27.98;81.73
21109;BME280;10712;52.944;9.098;2023-09-12T05:12:47;101143.31;;;27.95;82.02
21109;BME280;10712;52.944;9.098;2023-09-12T05:15:13;101141.25;;;27.97;81.96
21109;BME280;10712;52.944;9.098;2023-09-12T05:17:40;101138.69;;;27.96;82.34
21109;BME280;10712;52.944;9.098;2023-09-12T05:20:06;101137.84;;;27.95;82.49
21109;BME280;10712;52.944;9.098;2023-09-12T05:22:32;101129.63;;;27.95;82.31
21109;BME280;10712;52.944;9.098;2023-09-12T05:24:58;101133.22;;;27.96;82.38
21109;BME280;10712;52.944;9.098;2023-09-12T05:27:24;101121.03;;;27.98;82.37
21109;BME280;10712;52.944;9.098;2023-09-12T05:29:49;101125.25;;;28.01;82.28
21109;BME280;10712;52.944;9.098;2023-09-12T05:32:15;101122.75;;;27.99;82.24
21109;BME280;10712;52.944;9.098;2023-09-12T05:34:42;101115.09;;;27.95;82.55
21109;BME280;10712;52.944;9.098;2023-09-12T05:37:08;101137.84;;;27.95;82.47
21109;BME280;10712;52.944;9.098;2023-09-12T05:39:33;101154.28;;;27.95;82.41
21109;BME280;10712;52.944;9.098;2023-09-12T05:41:59;101143.31;;;27.95;82.50
21109;BME280;10712;52.944;9.098;2023-09-12T05:44:25;101153.91;;;27.98;82.63
21109;BME280;10712;52.944;9.098;2023-09-12T05:46:51;101161.72;;;28.01;82.41
21109;BME280;10712;52.944;9.098;2023-09-12T05:49:17;101162.38;;;28.03;82.17
21109;BME280;10712;52.944;9.098;2023-09-12T05:51:43;101160.69;;;28.02;82.41
21109;BME280;10712;52.944;9.098;2023-09-12T05:54:10;101158.81;;;28.03;81.92
21109;BME280;10712;52.944;9.098;2023-09-12T05:56:37;101167.88;;;28.03;82.01
21109;BME280;10712;52.944;9.098;2023-09-12T05:59:03;101165.78;;;28.05;82.41
21109;BME280;10712;52.944;9.098;2023-09-12T06:01:29;101156.91;;;28.03;82.14
21109;BME280;10712;52.944;9.098;2023-09-12T06:03:55;101146.81;;;28.04;82.51
21109;BME280;10712;52.944;9.098;2023-09-12T06:06:22;101144.25;;;28.02;82.03
21109;BME280;10712;52.944;9.098;2023-09-12T06:08:48;101134.06;;;27.96;82.25
21109;BME280;10712;52.944;9.098;2023-09-12T06:11:14;101143.31;;;27.95;82.01
21109;BME280;10712;52.944;9.098;2023-09-12T06:13:40;101158.06;;;27.94;82.27
21109;BME280;10712;52.944;9.098;2023-09-12T06:16:06;101169.00;;;27.94;82.26
21109;BME280;10712;52.944;9.098;2023-09-12T06:18:33;101153.44;;;27.95;82.06
21109;BME280;10712;52.944;9.098;2023-09-12T06:21:00;101152.22;;;27.97;82.41
21109;BME280;10712;52.944;9.098;2023-09-12T06:23:30;101158.06;;;27.94;82.24
21109;BME280;10712;52.944;9.098;2023-09-12T06:25:56;101150.25;;;27.91;82.12
21109;BME280;10712;52.944;9.098;2023-09-12T06:28:29;101150.06;;;27.93;82.05
21109;BME280;10712;52.944;9.098;2023-09-12T06:30:56;101133.41;;;27.94;82.11
21109;BME280;10712;52.944;9.098;2023-09-12T06:33:26;101139.94;;;27.93;82.32
21109;BME280;10712;52.944;9.098;2023-09-12T06:35:52;101122.19;;;27.89;82.22
21109;BME280;10712;52.944;9.098;2023-09-12T06:38:22;101114.56;;;27.85;82.43
21109;BME280;10712;52.944;9.098;2023-09-12T06:40:49;101110.72;;;27.79;82.41
21109;BME280;10712;52.944;9.098;2023-09-12T06:43:15;101105.25;;;27.79;82.05
21109;BME280;10712;52.944;9.098;2023-09-12T06:45:41;101120.22;;;27.83;82.19
21109;BME280;10712;52.944;9.098;2023-09-12T06:48:07;101128.06;;;27.86;82.49
21109;BME280;10712;52.944;9.098;2023-09-12T06:50:33;101140.69;;;27.87;82.51
21109;BME280;10712;52.944;9.098;2023-09-12T06:52:59;101155.06;;;27.89;82.39
21109;BME280;10712;52.944;9.098;2023-09-12T06:55:25;101150.25;;;27.91;82.69
21109;BME280;10712;52.944;9.098;2023-09-12T06:57:51;101144.59;;;27.93;82.61
21109;BME280;10712;52.944;9.098;2023-09-12T07:00:17;101149.00;;;27.94;82.59
21109;BME280;10712;52.944;9.098;2023-09-12T07:02:43;101144.59;;;27.93;82.70
21109;BME280;10712;52.944;9.098;2023-09-12T07:05:08;101149.84;;;27.94;82.79
21109;BME280;10712;52.944;9.098;2023-09-12T07:07:34;101138.31;;;27.99;82.73
21109;BME280;10712;52.944;9.098;2023-09-12T07:10:00;101141.50;;;28.02;82.70
21109;BME280;10712;52.944;9.098;2023-09-12T07:12:26;101145.38;;;28.08;82.64
21109;BME280;10712;52.944;9.098;2023-09-12T07:14:54;101141.41;;;28.10;82.74
21109;BME280;10712;52.944;9.098;2023-09-12T07:17:21;101142.91;;;28.13;82.57
21109;BME280;10712;52.944;9.098;2023-09-12T07:19:47;101146.13;;;28.16;82.67
21109;BME280;10712;52.944;9.098;2023-09-12T07:22:13;101145.75;;;28.19;82.56
21109;BME280;10712;52.944;9.098;2023-09-12T07:24:39;101140.66;;;28.16;82.80
21109;BME280;10712;52.944;9.098;2023-09-12T07:27:05;101131.41;;;28.17;83.07
21109;BME280;10712;52.944;9.098;2023-09-12T07:29:30;101135.84;;;28.18;83.03
21109;BME280;10712;52.944;9.098;2023-09-12T07:31:56;101140.28;;;28.19;82.93
21109;BME280;10712;52.944;9.098;2023-09-12T07:34:23;101146.13;;;28.16;82.93
21109;BME280;10712;52.944;9.098;2023-09-12T07:36:49;101149.53;;;28.18;82.89
21109;BME280;10712;52.944;9.098;2023-09-12T07:39:17;101158.41;;;28.20;82.99
21109;BME280;10712;52.944;9.098;2023-09-12T07:41:43;101151.25;;;28.19;83.00
21109;BME280;10712;52.944;9.098;2023-09-12T07:44:09;101152.94;;;28.20;82.64
21109;BME280;10712;52.944;9.098;2023-09-12T07:46:37;101161.78;;;28.23;82.69
21109;BME280;10712;52.944;9.098;2023-09-12T07:49:03;101162.63;;;28.23;82.69
21109;BME280;10712;52.944;9.098;2023-09-12T07:51:29;101165.19;;;28.25;82.30
21109;BME280;10712;52.944;9.098;2023-09-12T07:53:55;101167.28;;;28.23;82.69
21109;BME280;10712;52.944;9.098;2023-09-12T07:56:20;101169.44;;;28.27;82.49
21109;BME280;10712;52.944;9.098;2023-09-12T07:58:46;101162.72;;;28.30;82.29
21109;BME280;10712;52.944;9.098;2023-09-12T08:01:14;101161.00;;;28.29;82.20
21109;BME280;10712;52.944;9.098;2023-09-12T08:03:42;101156.97;;;28.25;82.20
21109;BME280;10712;52.944;9.098;2023-09-12T08:06:09;101165.56;;;28.21;82.10
21109;BME280;10712;52.944;9.098;2023-09-12T08:08:35;101167.56;;;28.28;81.90
21109;BME280;10712;52.944;9.098;2023-09-12T08:11:01;101164.81;;;28.28;81.49
21109;BME280;10712;52.944;9.098;2023-09-12T08:13:29;101159.34;;;28.28;81.33
21109;BME280;10712;52.944;9.098;2023-09-12T08:15:56;101168.59;;;28.27;81.66
21109;BME280;10712;52.944;9.098;2023-09-12T08:18:29;101171.97;;;28.29;81.24
21109;BME280;10712;52.944;9.098;2023-09-12T08:20:55;101162.25;;;28.26;81.10
21109;BME280;10712;52.944;9.098;2023-09-12T08:23:21;101176.81;;;28.27;81.07
21109;BME280;10712;52.944;9.098;2023-09-12T08:25:46;101177.44;;;28.29;81.41
21109;BME280;10712;52.944;9.098;2023-09-12T08:28:12;101187.38;;;28.30;81.13
21109;BME280;10712;52.944;9.098;2023-09-12T08:30:38;101196.06;;;28.33;81.42
21109;BME280;10712;52.944;9.098;2023-09-12T08:33:04;101200.28;;;28.36;81.50
21109;BME280;10712;52.944;9.098;2023-09-12T08:35:32;101199.25;;;28.37;81.52
21109;BME280;10712;52.944;9.098;2023-09-12T08:37:58;101221.84;;;28.39;81.48
21109;BME280;10712;52.944;9.098;2023-09-12T08:40:24;101248.03;;;28.41;81.51
21109;BME280;10712;52.944;9.098;2023-09-12T08:42:52;101269.97;;;28.41;81.27
21109;BME280;10712;52.944;9.098;2023-09-12T08:45:19;101266.56;;;28.39;81.46
21109;BME280;10712;52.944;9.098;2023-09-12T08:47:50;101261.38;;;28.30;81.55
21109;BME280;10712;52.944;9.098;2023-09-12T08:50:17;101255.34;;;28.19;82.23
21109;BME280;10712;52.944;9.098;2023-09-12T08:52:45;101239.56;;;28.21;81.35
21109;BME280;10712;52.944;9.098;2023-09-12T08:55:12;101251.59;;;28.20;81.54
21109;BME280;10712;52.944;9.098;2023-09-12T08:57:42;101251.59;;;28.20;81.50
21109;BME280;10712;52.944;9.098;2023-09-12T09:00:10;101248.19;;;28.18;81.37
21109;BME280;10712;52.944;9.098;2023-09-12T09:02:43;101243.44;;;28.12;81.42
21109;BME280;10712;52.944;9.098;2023-09-12T09:05:11;101254.03;;;28.15;81.47
21109;BME280;10712;52.944;9.098;2023-09-12T09:07:42;101255.34;;;28.19;81.47
21109;BME280;10712;52.944;9.098;2023-09-12T09:10:14;101256.75;;;28.15;81.55
21109;BME280;10712;52.944;9.098;2023-09-12T09:12:45;101253.16;;;28.15;81.21
21109;BME280;10712;52.944;9.098;2023-09-12T09:15:27;101256.00;;;28.07;81.69
21109;BME280;10712;52.944;9.098;2023-09-12T09:17:55;101260.34;;;28.16;81.49
21109;BME280;10712;52.944;9.098;2023-09-12T09:20:32;101261.22;;;28.16;81.32
21109;BME280;10712;52.944;9.098;2023-09-12T09:23:04;101253.34;;;28.13;81.00
21109;BME280;10712;52.944;9.098;2023-09-12T09:25:36;101263.66;;;28.11;80.93
21109;BME280;10712;52.944;9.098;2023-09-12T09:28:18;101261.09;;;28.10;81.28
21109;BME280;10712;52.944;9.098;2023-09-12T09:30:50;101280.09;;;28.11;81.12
21109;BME280;10712;52.944;9.098;2023-09-12T09:33:20;101273.75;;;28.11;81.36
21109;BME280;10712;52.944;9.098;2023-09-12T09:35:48;101277.34;;;28.11;80.90
21109;BME280;10712;52.944;9.098;2023-09-12T09:38:19;101279.06;;;28.12;81.24
21109;BME280;10712;52.944;9.098;2023-09-12T09:40:45;101283.69;;;28.12;80.97
21109;BME280;10712;52.944;9.098;2023-09-12T09:43:11;101289.75;;;28.07;81.34
21109;BME280;10712;52.944;9.098;2023-09-12T09:45:45;101297.66;;;28.02;81.31
21109;BME280;10712;52.944;9.098;2023-09-12T09:48:19;101300.31;;;27.96;81.08
21109;BME280;10712;52.944;9.098;2023-09-12T09:50:45;101305.97;;;27.94;81.25
21109;BME280;10712;52.944;9.098;2023-09-12T09:53:11;101309.94;;;27.92;81.22
21109;BME280;10712;52.944;9.098;2023-09-12T09:55:37;101309.00;;;27.85;81.14
21109;BME280;10712;52.944;9.098;2023-09-12T09:58:05;101313.06;;;27.89;81.16
21109;BME280;10712;52.944;9.098;2023-09-12T10:00:34;101312.41;;;27.87;80.90
21109;BME280;10712;52.944;9.098;2023-09-12T10:03:05;101314.47;;;27.85;81.12
21109;BME280;10712;52.944;9.098;2023-09-12T10:05:37;101314.84;;;27.81;81.12
21109;BME280;10712;52.944;9.098;2023-09-12T10:08:07;101319.09;;;27.84;80.86
21109;BME280;10712;52.944;9.098;2023-09-12T10:10:38;101319.28;;;27.82;80.91
21109;BME280;10712;52.944;9.098;2023-09-12T10:13:05;101314.00;;;27.81;80.85
21109;BME280;10712;52.944;9.098;2023-09-12T10:15:34;101298.59;;;27.80;80.54
21109;BME280;10712;52.944;9.098;2023-09-12T10:18:09;101308.22;;;27.76;80.75
21109;BME280;10712;52.944;9.098;2023-09-12T10:20:43;101300.78;;;27.70;80.76
21109;BME280;10712;52.944;9.098;2023-09-12T10:23:32;101288.03;;;27.62;80.85
21109;BME280;10712;52.944;9.098;2023-09-12T10:26:03;101288.59;;;27.58;80.95
21109;BME280;10712;52.944;9.098;2023-09-12T10:28:30;101270.81;;;27.54;80.75
21109;BME280;10712;52.944;9.098;2023-09-12T10:30:59;101255.44;;;27.53;80.80
21109;BME280;10712;52.944;9.098;2023-09-12T10:33:27;101241.75;;;27.53;80.81
21109;BME280;10712;52.944;9.098;2023-09-12T10:35:58;101243.81;;;27.51;80.84
21109;BME280;10712;52.944;9.098;2023-09-12T10:38:28;101248.91;;;27.54;80.84
21109;BME280;10712;52.944;9.098;2023-09-12T10:40:57;101247.22;;;27.53;81.22
21109;BME280;10712;52.944;9.098;2023-09-12T10:43:24;101245.50;;;27.52;81.17
21109;BME280;10712;52.944;9.098;2023-09-12T10:45:52;101241.94;;;27.51;81.14
21109;BME280;10712;52.944;9.098;2023-09-12T10:48:18;101232.84;;;27.51;81.10
21109;BME280;10712;52.944;9.098;2023-09-12T10:50:45;101229.09;;;27.52;81.16
21109;BME280;10712;52.944;9.098;2023-09-12T10:53:13;101230.78;;;27.53;81.47
21109;BME280;10712;52.944;9.098;2023-09-12T10:55:41;101224.59;;;27.59;81.25
21109;BME280;10712;52.944;9.098;2023-09-12T10:58:09;101218.63;;;27.55;81.42
21109;BME280;10712;52.944;9.098;2023-09-12T11:00:36;101226.25;;;27.60;81.39
21109;BME280;10712;52.944;9.098;2023-09-12T11:05:55;101235.16;;;27.62;81.57
21109;BME280;10712;52.944;9.098;2023-09-12T11:08:22;101231.38;;;27.63;81.52
21109;BME280;10712;52.944;9.098;2023-09-12T11:11:17;101233.25;;;27.62;81.67
21109;BME280;10712;52.944;9.098;2023-09-12T11:14:06;101231.75;;;27.60;81.93
21109;BME280;10712;52.944;9.098;2023-09-12T11:16:32;101233.34;;;27.69;81.67
21109;BME280;10712;52.944;9.098;2023-09-12T11:19:18;101231.47;;;27.69;81.52
21109;BME280;10712;52.944;9.098;2023-09-12T11:21:52;101215.50;;;27.73;81.56
21109;BME280;10712;52.944;9.098;2023-09-12T11:24:20;101213.63;;;27.73;81.48
21109;BME280;10712;52.944;9.098;2023-09-12T11:26:59;101215.50;;;27.73;81.26
21109;BME280;10712;52.944;9.098;2023-09-12T11:29:37;101217.19;;;27.74;81.59
21109;BME280;10712;52.944;9.098;2023-09-12T11:32:05;101215.13;;;27.76;81.72
21109;BME280;10712;52.944;9.098;2023-09-12T11:34:43;101206.75;;;27.77;81.70
21109;BME280;10712;52.944;9.098;2023-09-12T11:37:10;101223.63;;;27.81;81.39
21109;BME280;10712;52.944;9.098;2023-09-12T11:39:47;101253.09;;;27.79;81.58
21109;BME280;10712;52.944;9.098;2023-09-12T11:42:16;101270.25;;;27.73;81.68
21109;BME280;10712;52.944;9.098;2023-09-12T11:44:42;101266.41;;;27.67;81.71
21109;BME280;10712;52.944;9.098;2023-09-12T11:47:10;101267.25;;;27.68;81.71
21109;BME280;10712;52.944;9.098;2023-09-12T11:49:41;101270.06;;;27.60;81.77
21109;BME280;10712;52.944;9.098;2023-09-12T11:52:12;101260.19;;;27.59;81.93
21109;BME280;10712;52.944;9.098;2023-09-12T11:54:43;101253.66;;;27.60;82.07
21109;BME280;10712;52.944;9.098;2023-09-12T11:57:15;101258.75;;;27.63;82.22
21109;BME280;10712;52.944;9.098;2023-09-12T11:59:44;101247.03;;;27.69;82.03
21109;BME280;10712;52.944;9.098;2023-09-12T12:02:14;101243.72;;;27.73;82.33
21109;BME280;10712;52.944;9.098;2023-09-12T12:04:41;101243.56;;;27.75;82.09
21109;BME280;10712;52.944;9.098;2023-09-12T12:07:07;101252.25;;;27.78;82.08
21109;BME280;10712;52.944;9.098;2023-09-12T12:09:34;101256.78;;;27.86;82.21
21109;BME280;10712;52.944;9.098;2023-09-12T12:12:13;101249.88;;;27.90;82.50
21109;BME280;10712;52.944;9.098;2023-09-12T12:14:41;101237.78;;;27.99;82.38
21109;BME280;10712;52.944;9.098;2023-09-12T12:17:09;101229.47;;;28.07;82.40
21109;BME280;10712;52.944;9.098;2023-09-12T12:19:36;101232.47;;;28.12;82.50
21109;BME280;10712;52.944;9.098;2023-09-12T12:22:04;101229.84;;;28.19;82.04
21109;BME280;10712;52.944;9.098;2023-09-12T12:24:45;101227.09;;;28.19;82.16
21109;BME280;10712;52.944;9.098;2023-09-12T12:27:14;101229.66;;;28.20;82.27
21109;BME280;10712;52.944;9.098;2023-09-12T12:29:41;101227.56;;;28.23;82.40
21109;BME280;10712;52.944;9.098;2023-09-12T12:32:10;101224.97;;;28.36;82.22
21109;BME280;10712;52.944;9.098;2023-09-12T12:34:36;101228.25;;;28.46;82.49
21109;BME280;10712;52.944;9.098;2023-09-12T12:37:03;101227.94;;;28.55;82.50
21109;BME280;10712;52.944;9.098;2023-09-12T12:39:29;101224.59;;;28.60;82.02
21109;BME280;10712;52.944;9.098;2023-09-12T12:41:55;101233.88;;;28.59;82.32
21109;BME280;10712;52.944;9.098;2023-09-12T12:44:21;101226.75;;;28.65;82.33
21109;BME280;10712;52.944;9.098;2023-09-12T12:46:54;101220.69;;;28.69;82.17
21109;BME280;10712;52.944;9.098;2023-09-12T12:49:21;101225.44;;;28.75;82.19
21109;BME280;10712;52.944;9.098;2023-09-12T12:51:48;101222.69;;;28.75;82.23
21109;BME280;10712;52.944;9.098;2023-09-12T12:54:14;101221.34;;;28.71;81.57
21109;BME280;10712;52.944;9.098;2023-09-12T12:56:41;101216.69;;;28.72;81.57
21109;BME280;10712;52.944;9.098;2023-09-12T12:59:08;101224.06;;;28.71;82.17
21109;BME280;10712;52.944;9.098;2023-09-12T13:01:36;101220.09;;;28.74;81.87
21109;BME280;10712;52.944;9.098;2023-09-12T13:04:05;101221.16;;;28.73;81.61
21109;BME280;10712;52.944;9.098;2023-09-12T13:06:32;101216.69;;;28.72;81.23
21109;BME280;10712;52.944;9.098;2023-09-12T13:09:03;101209.59;;;28.77;81.09